Time;durP1;ratioP1;P1;durP2;ratioP2;P2;SDS_P1;SDS_P2;PMS_P1;PMS_P2;Temp;Humidity;BMP_temperature;BMP_pressure;BME280_temperature;BME280_humidity;BME280_pressure;Samples;Min_cycle;Max_cycle;Signal;HPM_P1;HPM_P2
2022/11/16 00:01:39;;;;;;;6.07;5.57;;;;;;;;;;4963934;28;20225;-72
2022/11/16 00:04:07;;;;;;;5.53;5.03;;;;;;;;;;4972488;28;20228;-73
2022/11/16 00:06:32;;;;;;;5.50;5.10;;;;;;;;;;4973072;28;20221;-73
2022/11/16 00:11:46;;;;;;;6.77;6.07;;;;;;;;;;4968163;28;20272;-73
2022/11/16 00:14:15;;;;;;;6.80;6.20;;;;;;;;;;4972758;28;20600;-72
2022/11/16 00:16:40;;;;;;;6.57;5.90;;;;;;;;;;4941225;28;20305;-72
2022/11/16 00:19:06;;;;;;;7.17;6.47;;;;;;;;;;4948020;28;20236;-74
2022/11/16 00:21:34;;;;;;;7.07;6.43;;;;;;;;;;4955372;28;20245;-73
2022/11/16 00:24:03;;;;;;;8.17;6.10;;;;;;;;;;4989250;28;20731;-74
2022/11/16 00:26:33;;;;;;;6.80;6.20;;;;;;;;;;4925072;28;20229;-74
2022/11/16 00:28:59;;;;;;;7.20;6.47;;;;;;;;;;4934093;28;20225;-74
2022/11/16 00:31:24;;;;;;;8.23;7.40;;;;;;;;;;4956954;28;20213;-73
2022/11/16 00:33:52;;;;;;;8.93;7.10;;;;;;;;;;4964602;28;20218;-73
2022/11/16 00:36:18;;;;;;;7.60;6.90;;;;;;;;;;4963399;28;20221;-74
2022/11/16 00:38:46;;;;;;;8.10;7.33;;;;;;;;;;4956118;28;20287;-75
2022/11/16 00:41:12;;;;;;;9.90;7.60;;;;;;;;;;4939546;28;20230;-73
2022/11/16 00:43:37;;;;;;;7.63;6.93;;;;;;;;;;4939869;28;20226;-75
2022/11/16 00:46:08;;;;;;;8.27;7.40;;;;;;;;;;4943135;28;20240;-73
2022/11/16 00:48:36;;;;;;;8.33;7.47;;;;;;;;;;4948646;28;20275;-72
2022/11/16 00:51:01;;;;;;;8.47;7.70;;;;;;;;;;4947670;28;20228;-72
2022/11/16 00:53:27;;;;;;;8.60;7.17;;;;;;;;;;4955559;28;20221;-74
2022/11/16 00:55:53;;;;;;;8.83;7.93;;;;;;;;;;4980632;28;20222;-72
2022/11/16 00:58:21;;;;;;;9.47;8.37;;;;;;;;;;4945017;28;20279;-75
2022/11/16 01:00:53;;;;;;;9.63;7.50;;;;;;;;;;4964192;28;20790;-72
2022/11/16 01:03:19;;;;;;;8.90;7.57;;;;;;;;;;4930573;28;20225;-74
2022/11/16 01:05:46;;;;;;;11.93;9.20;;;;;;;;;;4965574;28;20240;-73
2022/11/16 01:08:15;;;;;;;9.27;8.17;;;;;;;;;;4951770;28;20229;-73
2022/11/16 01:10:41;;;;;;;9.30;7.67;;;;;;;;;;4966072;28;20766;-73
2022/11/16 01:13:09;;;;;;;9.30;8.50;;;;;;;;;;4956598;28;20605;-74
2022/11/16 01:15:37;;;;;;;8.87;7.97;;;;;;;;;;4971736;28;20226;-73
2022/11/16 01:18:03;;;;;;;9.60;8.77;;;;;;;;;;4971671;28;20244;-74
2022/11/16 01:20:33;;;;;;;9.07;8.27;;;;;;;;;;4963677;28;20720;-75
2022/11/16 01:22:58;;;;;;;10.40;9.27;;;;;;;;;;4955922;28;20216;-75
2022/11/16 01:25:24;;;;;;;10.33;9.33;;;;;;;;;;4972179;28;20225;-75
2022/11/16 01:27:50;;;;;;;10.27;9.17;;;;;;;;;;4963381;28;20291;-73
2022/11/16 01:30:28;;;;;;;11.10;10.00;;;;;;;;;;4959075;28;20228;-73
2022/11/16 01:32:59;;;;;;;10.53;9.53;;;;;;;;;;4955561;28;20229;-72
2022/11/16 01:35:25;;;;;;;12.37;10.60;;;;;;;;;;4956962;28;20226;-73
2022/11/16 01:37:53;;;;;;;11.40;10.40;;;;;;;;;;4956590;28;20222;-73
2022/11/16 01:40:19;;;;;;;11.97;10.77;;;;;;;;;;4945037;28;20778;-74
2022/11/16 01:42:44;;;;;;;11.67;10.53;;;;;;;;;;4948240;28;20226;-74
2022/11/16 01:45:18;;;;;;;11.47;10.27;;;;;;;;;;4956371;28;20324;-72
2022/11/16 01:47:49;;;;;;;12.50;11.37;;;;;;;;;;4960026;28;20229;-73
2022/11/16 01:50:18;;;;;;;11.97;10.87;;;;;;;;;;4933302;28;20252;-75
2022/11/16 01:52:54;;;;;;;14.17;11.07;;;;;;;;;;4930799;28;20213;-75
2022/11/16 01:55:20;;;;;;;12.47;11.27;;;;;;;;;;4945125;28;20229;-73
2022/11/16 01:58:07;;;;;;;11.77;10.70;;;;;;;;;;4942560;28;20217;-72
2022/11/16 02:00:34;;;;;;;12.73;11.63;;;;;;;;;;4946865;28;20603;-74
2022/11/16 02:03:21;;;;;;;13.07;11.77;;;;;;;;;;4935771;28;20224;-74
2022/11/16 02:06:20;;;;;;;12.87;11.70;;;;;;;;;;4956191;28;20233;-74
2022/11/16 02:11:53;;;;;;;12.33;11.13;;;;;;;;;;4971053;28;20321;-73
2022/11/16 02:14:55;;;;;;;14.07;12.77;;;;;;;;;;4982519;28;20590;-73
2022/11/16 02:18:05;;;;;;;13.33;12.07;;;;;;;;;;4959125;28;20654;-74
2022/11/16 02:20:42;;;;;;;14.10;12.63;;;;;;;;;;4963457;28;20229;-73
2022/11/16 02:23:29;;;;;;;15.67;14.17;;;;;;;;;;4954133;28;20256;-73
2022/11/16 02:26:12;;;;;;;15.20;13.80;;;;;;;;;;4987182;28;20236;-74
2022/11/16 02:28:45;;;;;;;15.13;13.63;;;;;;;;;;4955153;28;20221;-73
2022/11/16 02:31:17;;;;;;;15.63;14.20;;;;;;;;;;4961272;28;20225;-74
2022/11/16 02:33:43;;;;;;;16.13;14.57;;;;;;;;;;4957488;28;20833;-74
2022/11/16 02:36:09;;;;;;;16.50;14.80;;;;;;;;;;4947713;28;20226;-74
2022/11/16 02:38:37;;;;;;;15.77;14.27;;;;;;;;;;4970282;28;20218;-74
2022/11/16 02:41:07;;;;;;;16.20;14.70;;;;;;;;;;4939434;28;20234;-73
2022/11/16 02:43:48;;;;;;;18.37;16.50;;;;;;;;;;4975563;28;20222;-74
2022/11/16 02:46:18;;;;;;;18.20;16.30;;;;;;;;;;4959855;28;20770;-74
2022/11/16 02:48:48;;;;;;;18.20;16.33;;;;;;;;;;4942797;28;20221;-74
2022/11/16 02:51:16;;;;;;;17.70;16.03;;;;;;;;;;4930926;28;20226;-73
2022/11/16 02:53:59;;;;;;;18.43;16.80;;;;;;;;;;4963951;28;20237;-73
2022/11/16 02:56:27;;;;;;;19.63;17.63;;;;;;;;;;4958046;28;20741;-73
2022/11/16 02:58:53;;;;;;;18.83;17.03;;;;;;;;;;4950490;28;20217;-74
2022/11/16 03:01:29;;;;;;;18.70;16.93;;;;;;;;;;4957852;28;20228;-74
2022/11/16 03:04:06;;;;;;;19.50;17.50;;;;;;;;;;4958328;28;20224;-74
2022/11/16 03:06:35;;;;;;;19.40;17.40;;;;;;;;;;4949036;28;20232;-74
2022/11/16 03:09:04;;;;;;;20.93;18.83;;;;;;;;;;4964508;28;20234;-73
2022/11/16 03:14:18;;;;;;;19.63;17.53;;;;;;;;;;4962389;28;20234;-73
2022/11/16 03:16:45;;;;;;;22.70;17.90;;;;;;;;;;4941468;28;20242;-74
2022/11/16 03:19:13;;;;;;;21.00;18.80;;;;;;;;;;4941534;28;20633;-74
2022/11/16 03:21:56;;;;;;;20.20;18.10;;;;;;;;;;4950075;28;20725;-74
2022/11/16 03:24:24;;;;;;;21.00;19.00;;;;;;;;;;4966433;28;20217;-74
2022/11/16 03:27:25;;;;;;;20.43;18.33;;;;;;;;;;4942041;28;20229;-74
2022/11/16 03:29:59;;;;;;;20.07;18.07;;;;;;;;;;4954733;28;20248;-74
2022/11/16 03:32:39;;;;;;;21.17;18.97;;;;;;;;;;4972029;28;20226;-73
2022/11/16 03:35:20;;;;;;;20.17;18.07;;;;;;;;;;4950538;28;20256;-74
2022/11/16 03:37:49;;;;;;;21.20;18.77;;;;;;;;;;4973827;28;20225;-73
2022/11/16 03:40:17;;;;;;;18.63;16.77;;;;;;;;;;4948544;28;20226;-73
2022/11/16 03:42:43;;;;;;;20.87;18.73;;;;;;;;;;4931296;28;20381;-73
2022/11/16 03:45:12;;;;;;;22.47;18.83;;;;;;;;;;4945046;28;20229;-74
2022/11/16 03:47:41;;;;;;;20.17;17.97;;;;;;;;;;4926939;28;20731;-73
2022/11/16 03:50:09;;;;;;;20.07;18.20;;;;;;;;;;4950556;28;20248;-74
2022/11/16 03:52:40;;;;;;;20.70;17.87;;;;;;;;;;4956899;28;20810;-74
2022/11/16 03:55:06;;;;;;;20.80;18.67;;;;;;;;;;4933935;28;20226;-73
2022/11/16 03:57:33;;;;;;;21.63;19.37;;;;;;;;;;4962936;28;20213;-75
2022/11/16 03:59:58;;;;;;;19.87;17.97;;;;;;;;;;4963588;28;20233;-74
2022/11/16 04:02:24;;;;;;;21.50;18.03;;;;;;;;;;4934485;28;20225;-74
2022/11/16 04:24:21;;;;;;;22.13;18.67;;;;;;;;;;4987838;28;20225;-74
2022/11/16 04:29:38;;;;;;;20.13;18.03;;;;;;;;;;4951942;28;20300;-74
2022/11/16 04:37:48;;;;;;;20.50;18.40;;;;;;;;;;4963757;28;20295;-75
2022/11/16 04:40:16;;;;;;;20.83;18.73;;;;;;;;;;4931726;28;20237;-75
2022/11/16 04:42:41;;;;;;;19.33;17.37;;;;;;;;;;4940161;28;20226;-73
2022/11/16 04:47:52;;;;;;;19.63;17.63;;;;;;;;;;4962901;28;20230;-74
2022/11/16 04:50:24;;;;;;;20.73;18.60;;;;;;;;;;4956488;28;20283;-75
2022/11/16 04:52:51;;;;;;;21.90;19.53;;;;;;;;;;4933768;28;20237;-75
2022/11/16 04:55:19;;;;;;;21.33;19.13;;;;;;;;;;4956266;28;20236;-72
2022/11/16 04:57:48;;;;;;;20.93;18.80;;;;;;;;;;4979653;28;20221;-76
2022/11/16 05:00:15;;;;;;;21.40;19.17;;;;;;;;;;4960687;28;20315;-74
2022/11/16 05:02:41;;;;;;;20.77;18.70;;;;;;;;;;4954213;28;20218;-75
2022/11/16 05:05:07;;;;;;;21.60;19.37;;;;;;;;;;4978619;28;20228;-74
2022/11/16 05:07:36;;;;;;;21.77;19.57;;;;;;;;;;4950982;28;20235;-73
2022/11/16 05:10:09;;;;;;;20.90;18.70;;;;;;;;;;4961410;28;20256;-75
2022/11/16 05:12:35;;;;;;;22.27;19.90;;;;;;;;;;4961744;28;20248;-75
2022/11/16 05:15:06;;;;;;;21.63;19.43;;;;;;;;;;4948160;28;20230;-75
2022/11/16 05:17:35;;;;;;;20.73;18.60;;;;;;;;;;4948270;28;20225;-76
2022/11/16 05:22:56;;;;;;;21.40;19.10;;;;;;;;;;4965017;28;20222;-75
2022/11/16 05:25:27;;;;;;;21.47;19.20;;;;;;;;;;4963682;28;20256;-72
2022/11/16 05:27:52;;;;;;;21.63;19.43;;;;;;;;;;4948337;28;20247;-75
2022/11/16 05:30:21;;;;;;;21.87;19.67;;;;;;;;;;4958797;28;20761;-73
2022/11/16 05:32:50;;;;;;;22.03;19.63;;;;;;;;;;4948087;28;20225;-74
2022/11/16 05:35:20;;;;;;;21.47;19.17;;;;;;;;;;4964671;28;20259;-74
2022/11/16 05:37:46;;;;;;;22.20;19.87;;;;;;;;;;4953798;28;20663;-74
2022/11/16 05:40:14;;;;;;;21.70;19.40;;;;;;;;;;4932093;28;20240;-75
2022/11/16 05:42:49;;;;;;;22.27;20.03;;;;;;;;;;4942039;28;20221;-76
2022/11/16 05:45:18;;;;;;;23.93;21.20;;;;;;;;;;4963943;28;20235;-74
2022/11/16 05:47:49;;;;;;;23.47;19.67;;;;;;;;;;4961030;28;20677;-73
2022/11/16 05:50:15;;;;;;;21.50;19.20;;;;;;;;;;4959911;28;20225;-73
2022/11/16 05:52:45;;;;;;;21.30;19.07;;;;;;;;;;4959102;28;20720;-74
2022/11/16 05:55:10;;;;;;;23.33;20.57;;;;;;;;;;4940118;28;20229;-76
2022/11/16 05:57:44;;;;;;;23.27;19.67;;;;;;;;;;4959917;28;20273;-76
2022/11/16 06:00:10;;;;;;;22.90;18.97;;;;;;;;;;4946607;28;20722;-75
2022/11/16 06:02:48;;;;;;;23.03;20.13;;;;;;;;;;4950192;28;20259;-74
2022/11/16 06:05:21;;;;;;;24.40;19.63;;;;;;;;;;4949293;28;20236;-73
2022/11/16 06:08:04;;;;;;;19.70;17.80;;;;;;;;;;4963360;28;20225;-72
2022/11/16 06:10:31;;;;;;;21.73;19.43;;;;;;;;;;4916291;28;20775;-74
2022/11/16 06:12:57;;;;;;;21.50;19.33;;;;;;;;;;4955707;28;20226;-74
2022/11/16 06:15:24;;;;;;;22.70;20.33;;;;;;;;;;4971207;28;20614;-74
2022/11/16 06:17:53;;;;;;;22.07;19.77;;;;;;;;;;4941579;28;20214;-76
2022/11/16 06:20:20;;;;;;;23.23;19.30;;;;;;;;;;4973658;28;20245;-75
2022/11/16 06:23:05;;;;;;;21.80;18.63;;;;;;;;;;4937536;28;20823;-76
2022/11/16 06:25:37;;;;;;;22.77;20.10;;;;;;;;;;4942314;28;20225;-75
2022/11/16 06:28:05;;;;;;;22.87;20.23;;;;;;;;;;4992869;28;20221;-75
2022/11/16 06:30:34;;;;;;;23.10;20.53;;;;;;;;;;4963984;28;20695;-75
2022/11/16 06:33:05;;;;;;;23.13;20.23;;;;;;;;;;4958250;28;20214;-75
2022/11/16 06:35:33;;;;;;;22.67;20.27;;;;;;;;;;4940489;28;20225;-74
2022/11/16 06:38:00;;;;;;;22.47;19.93;;;;;;;;;;4965183;28;20217;-75
2022/11/16 06:40:31;;;;;;;23.77;20.80;;;;;;;;;;4936468;28;20276;-74
2022/11/16 06:43:01;;;;;;;22.33;19.90;;;;;;;;;;4990852;28;20214;-74
2022/11/16 06:45:29;;;;;;;23.80;20.43;;;;;;;;;;4975204;28;20698;-74
2022/11/16 06:47:58;;;;;;;22.33;20.00;;;;;;;;;;4959877;28;20276;-74
2022/11/16 06:50:24;;;;;;;23.73;20.33;;;;;;;;;;4942799;28;20776;-74
2022/11/16 06:52:49;;;;;;;25.07;20.10;;;;;;;;;;4943511;28;20225;-74
2022/11/16 06:55:16;;;;;;;24.50;21.03;;;;;;;;;;4933802;28;20833;-74
2022/11/16 06:57:41;;;;;;;23.40;20.77;;;;;;;;;;4964476;28;20226;-73
2022/11/16 07:00:09;;;;;;;24.17;21.63;;;;;;;;;;4960170;28;20308;-74
2022/11/16 07:02:36;;;;;;;27.30;20.13;;;;;;;;;;4961352;28;20278;-75
2022/11/16 07:05:03;;;;;;;25.97;22.70;;;;;;;;;;4936354;28;20236;-75
2022/11/16 07:07:29;;;;;;;26.10;22.57;;;;;;;;;;4934205;28;20363;-74
2022/11/16 07:09:56;;;;;;;25.43;22.37;;;;;;;;;;4958806;28;20225;-73
2022/11/16 07:12:23;;;;;;;24.60;20.67;;;;;;;;;;4964464;28;20769;-74
2022/11/16 07:14:49;;;;;;;24.60;21.80;;;;;;;;;;4958848;28;20245;-75
2022/11/16 07:17:17;;;;;;;25.13;22.17;;;;;;;;;;4964089;28;20222;-73
2022/11/16 07:19:47;;;;;;;27.10;21.37;;;;;;;;;;4950880;28;20253;-73
2022/11/16 07:22:13;;;;;;;28.23;22.60;;;;;;;;;;4965143;28;20244;-74
2022/11/16 07:24:39;;;;;;;26.27;23.23;;;;;;;;;;4943064;28;20720;-74
2022/11/16 07:27:06;;;;;;;23.87;21.30;;;;;;;;;;4968136;28;20228;-74
2022/11/16 07:29:34;;;;;;;26.63;21.60;;;;;;;;;;4950618;28;20222;-75
2022/11/16 07:32:38;;;;;;;22.73;19.90;;;;;;;;;;4943283;28;20213;-74
2022/11/16 07:35:16;;;;;;;24.93;22.30;;;;;;;;;;4942466;28;20229;-74
2022/11/16 07:37:42;;;;;;;27.80;22.87;;;;;;;;;;4935452;28;20229;-73
2022/11/16 07:40:09;;;;;;;23.97;21.47;;;;;;;;;;4966694;28;20768;-73
2022/11/16 07:42:37;;;;;;;26.40;21.90;;;;;;;;;;4959032;28;20222;-74
2022/11/16 07:45:23;;;;;;;24.07;21.23;;;;;;;;;;4947306;28;20767;-73
2022/11/16 07:47:57;;;;;;;27.63;22.30;;;;;;;;;;4935523;28;20308;-74
2022/11/16 07:50:43;;;;;;;28.10;22.00;;;;;;;;;;4980854;28;20698;-74
2022/11/16 07:53:11;;;;;;;27.00;22.17;;;;;;;;;;4964258;28;20221;-75
2022/11/16 07:55:38;;;;;;;24.17;21.33;;;;;;;;;;4949079;28;20969;-72
2022/11/16 07:58:06;;;;;;;25.23;22.23;;;;;;;;;;4948222;28;20316;-76
2022/11/16 08:00:32;;;;;;;26.03;22.10;;;;;;;;;;4966529;28;20245;-72
2022/11/16 08:03:06;;;;;;;27.23;21.63;;;;;;;;;;4964663;28;20275;-72
2022/11/16 08:05:33;;;;;;;27.40;21.53;;;;;;;;;;4957016;28;20312;-72
2022/11/16 08:07:59;;;;;;;25.10;22.13;;;;;;;;;;4943100;28;20229;-74
2022/11/16 08:10:28;;;;;;;26.37;22.30;;;;;;;;;;4981824;28;20221;-74
2022/11/16 08:12:54;;;;;;;24.03;20.73;;;;;;;;;;4974735;28;20245;-73
2022/11/16 08:15:24;;;;;;;24.03;21.40;;;;;;;;;;4951431;28;20226;-73
2022/11/16 08:17:53;;;;;;;24.83;22.10;;;;;;;;;;4957527;28;20387;-71
2022/11/16 08:20:19;;;;;;;24.13;21.47;;;;;;;;;;4964795;28;20214;-74
2022/11/16 08:22:46;;;;;;;24.03;21.63;;;;;;;;;;4957863;28;20253;-74
2022/11/16 08:25:12;;;;;;;27.23;22.73;;;;;;;;;;4979304;28;20741;-73
2022/11/16 08:27:43;;;;;;;27.77;22.40;;;;;;;;;;4973653;28;20303;-75
2022/11/16 08:30:12;;;;;;;24.40;21.80;;;;;;;;;;4961982;28;20213;-73
2022/11/16 08:32:42;;;;;;;26.23;22.17;;;;;;;;;;4969923;28;20233;-73
2022/11/16 08:35:09;;;;;;;29.70;24.13;;;;;;;;;;4945019;28;20228;-72
2022/11/16 08:37:35;;;;;;;25.00;22.47;;;;;;;;;;4938760;28;20221;-72
2022/11/16 08:40:03;;;;;;;23.70;21.10;;;;;;;;;;4972347;28;20669;-75
2022/11/16 08:42:37;;;;;;;25.50;20.60;;;;;;;;;;4941988;28;20221;-75
2022/11/16 08:45:03;;;;;;;26.10;22.23;;;;;;;;;;4939012;28;20250;-73
2022/11/16 08:47:30;;;;;;;26.50;22.70;;;;;;;;;;4948570;28;20221;-76
2022/11/16 08:49:57;;;;;;;28.13;22.37;;;;;;;;;;4972955;28;20617;-73
2022/11/16 08:52:25;;;;;;;27.27;22.47;;;;;;;;;;4957446;28;20224;-73
2022/11/16 08:54:53;;;;;;;30.10;22.77;;;;;;;;;;4964084;28;20606;-75
2022/11/16 08:57:21;;;;;;;24.17;21.67;;;;;;;;;;4960501;28;20217;-73
2022/11/16 08:59:52;;;;;;;24.93;21.47;;;;;;;;;;4964197;28;20226;-74
2022/11/16 09:02:24;;;;;;;24.50;21.90;;;;;;;;;;4955808;28;20228;-73
2022/11/16 09:04:51;;;;;;;22.87;20.37;;;;;;;;;;4945062;28;20225;-76
2022/11/16 09:07:16;;;;;;;25.13;22.00;;;;;;;;;;4966465;28;20225;-73
2022/11/16 09:09:42;;;;;;;25.90;22.17;;;;;;;;;;4980690;28;20275;-77
2022/11/16 09:12:08;;;;;;;27.27;21.57;;;;;;;;;;4938555;28;20876;-77
2022/11/16 09:14:33;;;;;;;23.90;21.33;;;;;;;;;;4964594;28;20233;-74
2022/11/16 09:16:59;;;;;;;24.43;20.57;;;;;;;;;;4933121;28;20284;-73
2022/11/16 09:19:24;;;;;;;24.17;21.57;;;;;;;;;;4945210;28;20221;-74
2022/11/16 09:21:50;;;;;;;24.67;21.53;;;;;;;;;;4962144;28;20260;-74
2022/11/16 09:24:18;;;;;;;27.37;22.57;;;;;;;;;;4949946;28;20244;-73
2022/11/16 09:26:44;;;;;;;27.30;23.23;;;;;;;;;;4970766;28;20225;-73
2022/11/16 09:29:10;;;;;;;25.90;22.90;;;;;;;;;;4965358;28;20229;-73
2022/11/16 09:31:36;;;;;;;26.80;21.73;;;;;;;;;;4956048;28;20217;-73
2022/11/16 09:34:02;;;;;;;27.00;22.17;;;;;;;;;;4948071;28;20216;-74
2022/11/16 09:36:27;;;;;;;25.67;22.87;;;;;;;;;;4968749;28;20283;-74
2022/11/16 09:38:53;;;;;;;25.57;22.77;;;;;;;;;;4953771;28;20225;-74
2022/11/16 09:41:25;;;;;;;25.13;21.73;;;;;;;;;;4934815;28;20779;-75
2022/11/16 09:44:43;;;;;;;24.23;21.63;;;;;;;;;;4979517;28;20227;-73
2022/11/16 09:47:16;;;;;;;26.20;22.23;;;;;;;;;;4950289;28;20225;-75
2022/11/16 09:49:54;;;;;;;24.13;21.53;;;;;;;;;;4971200;28;20221;-73
2022/11/16 09:52:22;;;;;;;28.67;22.70;;;;;;;;;;4958390;28;20228;-73
2022/11/16 09:54:48;;;;;;;24.83;22.13;;;;;;;;;;4996021;28;20223;-74
2022/11/16 09:57:17;;;;;;;26.77;22.57;;;;;;;;;;4961851;28;20224;-72
2022/11/16 09:59:47;;;;;;;24.93;21.50;;;;;;;;;;4973149;28;20645;-75
2022/11/16 10:02:18;;;;;;;26.73;22.17;;;;;;;;;;4937261;28;20392;-75
2022/11/16 10:04:56;;;;;;;25.13;21.73;;;;;;;;;;4977724;28;20337;-74
2022/11/16 10:07:26;;;;;;;26.33;21.80;;;;;;;;;;4945687;28;20217;-71
2022/11/16 10:09:52;;;;;;;25.00;22.03;;;;;;;;;;4951319;28;20275;-73
2022/11/16 10:12:26;;;;;;;27.40;22.60;;;;;;;;;;4963755;28;20213;-74
2022/11/16 10:15:00;;;;;;;23.97;20.97;;;;;;;;;;4985828;28;20235;-72
2022/11/16 10:17:55;;;;;;;29.23;22.73;;;;;;;;;;4970060;28;20706;-72
2022/11/16 10:20:51;;;;;;;26.17;22.37;;;;;;;;;;4977302;28;20226;-75
2022/11/16 10:23:44;;;;;;;29.03;21.40;;;;;;;;;;4975992;28;20237;-73
2022/11/16 10:26:14;;;;;;;25.27;20.27;;;;;;;;;;4977431;28;20252;-73
2022/11/16 10:29:23;;;;;;;24.23;21.17;;;;;;;;;;4987150;28;20711;-72
2022/11/16 10:32:12;;;;;;;26.57;21.57;;;;;;;;;;4874044;29;20705;-75
2022/11/16 10:35:02;;;;;;;24.23;21.63;;;;;;;;;;4967265;28;20661;-72
2022/11/16 10:38:03;;;;;;;27.87;22.50;;;;;;;;;;4940737;28;20311;-73
2022/11/16 10:40:37;;;;;;;24.50;21.30;;;;;;;;;;4954700;28;20898;-73
2022/11/16 10:43:13;;;;;;;26.63;22.27;;;;;;;;;;4992384;28;20221;-75
2022/11/16 10:45:59;;;;;;;24.03;21.33;;;;;;;;;;4961241;28;20542;-73
2022/11/16 10:48:30;;;;;;;27.30;22.70;;;;;;;;;;4960648;28;20217;-73
2022/11/16 10:50:56;;;;;;;26.37;23.23;;;;;;;;;;4979943;28;20230;-77
2022/11/16 10:53:26;;;;;;;28.87;22.97;;;;;;;;;;4969335;28;20723;-75
2022/11/16 10:56:17;;;;;;;24.77;21.17;;;;;;;;;;4952171;28;20237;-75
2022/11/16 10:58:55;;;;;;;25.77;22.10;;;;;;;;;;4995580;28;20723;-72
2022/11/16 11:01:35;;;;;;;26.37;22.33;;;;;;;;;;4967317;28;20233;-74
2022/11/16 11:04:20;;;;;;;28.80;21.97;;;;;;;;;;4954449;28;20744;-72
2022/11/16 11:06:50;;;;;;;30.10;23.27;;;;;;;;;;4991854;28;21244;-74
2022/11/16 11:09:18;;;;;;;26.07;21.23;;;;;;;;;;4959224;28;20671;-73
2022/11/16 11:15:01;;;;;;;26.23;21.63;;;;;;;;;;4979922;28;20229;-73
2022/11/16 11:17:28;;;;;;;26.67;22.13;;;;;;;;;;4984063;28;20217;-76
2022/11/16 11:20:04;;;;;;;29.53;22.60;;;;;;;;;;4982925;28;20722;-74
2022/11/16 11:22:40;;;;;;;27.23;23.23;;;;;;;;;;4958935;28;20307;-76
2022/11/16 11:25:13;;;;;;;32.67;23.07;;;;;;;;;;4933145;28;20236;-75
2022/11/16 11:27:39;;;;;;;30.00;22.90;;;;;;;;;;4963281;28;20300;-75
2022/11/16 11:30:22;;;;;;;27.97;22.23;;;;;;;;;;4958671;28;20758;-73
2022/11/16 11:32:47;;;;;;;27.57;21.57;;;;;;;;;;4948922;28;20226;-75
2022/11/16 11:35:29;;;;;;;29.17;22.07;;;;;;;;;;4962169;28;20225;-74
2022/11/16 11:37:55;;;;;;;26.00;21.87;;;;;;;;;;4949038;28;20213;-75
2022/11/16 11:40:23;;;;;;;26.70;20.87;;;;;;;;;;4940114;28;20256;-76
2022/11/16 11:42:52;;;;;;;27.30;21.97;;;;;;;;;;4960656;28;20235;-75
2022/11/16 11:45:18;;;;;;;25.90;22.03;;;;;;;;;;4970536;28;20769;-75
2022/11/16 11:47:59;;;;;;;23.00;19.87;;;;;;;;;;4963525;28;20799;-74
2022/11/16 11:51:04;;;;;;;29.43;20.93;;;;;;;;;;4971471;28;20236;-74
2022/11/16 11:53:43;;;;;;;28.80;20.33;;;;;;;;;;4910344;29;20232;-76
2022/11/16 11:56:11;;;;;;;27.87;21.93;;;;;;;;;;4916090;29;20372;-75
2022/11/16 11:58:43;;;;;;;23.83;20.70;;;;;;;;;;4899908;29;20726;-74
2022/11/16 12:01:47;;;;;;;23.80;20.07;;;;;;;;;;4886511;29;20247;-75
2022/11/16 12:04:27;;;;;;;23.53;19.57;;;;;;;;;;4932772;28;20213;-74
2022/11/16 12:07:31;;;;;;;23.00;19.13;;;;;;;;;;4980314;28;20742;-74
2022/11/16 12:10:10;;;;;;;23.57;19.50;;;;;;;;;;4989543;28;20241;-73
2022/11/16 12:13:01;;;;;;;24.70;19.87;;;;;;;;;;4989229;28;20863;-72
2022/11/16 12:15:51;;;;;;;21.27;17.33;;;;;;;;;;4988289;28;20229;-73
2022/11/16 12:18:30;;;;;;;24.03;18.53;;;;;;;;;;4954187;28;20225;-74
2022/11/16 12:21:01;;;;;;;23.33;18.57;;;;;;;;;;4986141;28;20587;-74
2022/11/16 12:23:34;;;;;;;26.40;19.00;;;;;;;;;;4963082;28;20218;-74
2022/11/16 12:26:08;;;;;;;22.97;17.77;;;;;;;;;;4956191;28;20261;-74
2022/11/16 12:28:50;;;;;;;20.07;17.87;;;;;;;;;;4972369;28;20224;-74
2022/11/16 12:31:31;;;;;;;20.00;17.67;;;;;;;;;;4966434;28;20217;-74
2022/11/16 12:34:04;;;;;;;24.00;18.23;;;;;;;;;;4965267;28;20253;-74
2022/11/16 12:36:41;;;;;;;26.47;19.30;;;;;;;;;;4964791;28;20235;-73
2022/11/16 12:39:12;;;;;;;21.80;18.10;;;;;;;;;;4957528;28;20305;-74
2022/11/16 12:42:00;;;;;;;23.17;18.57;;;;;;;;;;4943953;28;20269;-73
2022/11/16 12:44:57;;;;;;;20.43;17.97;;;;;;;;;;4989812;28;20241;-73
2022/11/16 12:47:35;;;;;;;21.60;17.53;;;;;;;;;;4952735;28;23127;-72
2022/11/16 12:50:07;;;;;;;22.60;18.87;;;;;;;;;;4956746;28;20225;-73
2022/11/16 12:52:47;;;;;;;22.57;17.63;;;;;;;;;;4955067;28;20780;-72
2022/11/16 12:55:51;;;;;;;21.93;17.13;;;;;;;;;;4965085;28;20723;-72
2022/11/16 12:58:48;;;;;;;21.63;17.27;;;;;;;;;;4963086;28;20247;-76
2022/11/16 13:01:44;;;;;;;22.90;17.97;;;;;;;;;;4976981;28;20229;-73
2022/11/16 13:04:15;;;;;;;24.07;17.57;;;;;;;;;;4971715;28;20220;-71
2022/11/16 13:06:53;;;;;;;19.70;16.47;;;;;;;;;;4956760;28;20749;-73
2022/11/16 13:09:27;;;;;;;23.60;17.67;;;;;;;;;;4962508;28;20288;-73
2022/11/16 13:11:59;;;;;;;24.20;17.17;;;;;;;;;;4957929;28;20229;-74
2022/11/16 13:14:40;;;;;;;24.53;18.20;;;;;;;;;;4947975;28;20237;-75
2022/11/16 13:17:06;;;;;;;24.03;18.30;;;;;;;;;;4951324;28;20591;-75
2022/11/16 13:19:38;;;;;;;23.27;18.00;;;;;;;;;;4960171;28;20221;-75
2022/11/16 13:22:13;;;;;;;24.47;17.63;;;;;;;;;;4930929;28;20232;-74
2022/11/16 13:25:05;;;;;;;21.87;17.50;;;;;;;;;;4939880;28;20224;-74
2022/11/16 13:27:43;;;;;;;21.80;16.77;;;;;;;;;;4963364;28;20229;-74
2022/11/16 13:30:17;;;;;;;21.57;16.40;;;;;;;;;;4955842;28;20220;-74
2022/11/16 13:33:10;;;;;;;22.37;16.77;;;;;;;;;;4988874;28;20221;-75
2022/11/16 13:35:39;;;;;;;21.63;17.23;;;;;;;;;;4970542;28;20293;-74
2022/11/16 13:38:08;;;;;;;18.97;16.03;;;;;;;;;;4939158;28;20257;-77
2022/11/16 13:40:36;;;;;;;25.03;16.63;;;;;;;;;;4958016;28;20244;-81
2022/11/16 13:43:04;;;;;;;18.67;16.47;;;;;;;;;;4962244;28;20754;-77
2022/11/16 13:45:44;;;;;;;22.37;16.17;;;;;;;;;;4979226;28;20290;-75
2022/11/16 13:48:45;;;;;;;22.13;16.03;;;;;;;;;;4949097;28;20221;-74
2022/11/16 13:51:18;;;;;;;20.20;15.13;;;;;;;;;;4841186;29;20228;-74
2022/11/16 13:53:50;;;;;;;19.80;15.77;;;;;;;;;;4972718;28;20224;-75
2022/11/16 13:56:15;;;;;;;19.03;15.33;;;;;;;;;;4929684;28;20841;-76
2022/11/16 13:58:54;;;;;;;19.13;15.77;;;;;;;;;;4963656;28;20213;-75
2022/11/16 14:01:20;;;;;;;18.67;15.53;;;;;;;;;;4921859;28;20227;-77
2022/11/16 14:03:50;;;;;;;23.97;15.40;;;;;;;;;;4933801;28;20742;-73
2022/11/16 14:06:18;;;;;;;18.53;15.57;;;;;;;;;;4944828;28;20735;-74
2022/11/16 14:08:45;;;;;;;23.60;16.33;;;;;;;;;;4989335;28;20249;-73
2022/11/16 14:11:29;;;;;;;17.20;15.13;;;;;;;;;;4942699;28;20405;-73
2022/11/16 14:14:36;;;;;;;16.57;14.70;;;;;;;;;;4947998;28;20237;-78
2022/11/16 14:17:05;;;;;;;19.10;14.97;;;;;;;;;;4958186;28;20312;-74
2022/11/16 14:19:50;;;;;;;20.50;15.10;;;;;;;;;;4922562;28;20231;-74
2022/11/16 14:22:21;;;;;;;18.10;15.00;;;;;;;;;;4987147;28;20213;-77
2022/11/16 14:24:54;;;;;;;17.90;13.97;;;;;;;;;;4972203;28;20225;-74
2022/11/16 14:27:47;;;;;;;15.70;13.73;;;;;;;;;;4934879;28;20241;-74
2022/11/16 14:30:28;;;;;;;17.07;14.03;;;;;;;;;;4966170;28;20225;-76
2022/11/16 14:32:54;;;;;;;17.57;14.33;;;;;;;;;;4971795;28;20229;-74
2022/11/16 14:35:35;;;;;;;16.80;13.83;;;;;;;;;;4947465;28;20313;-73
2022/11/16 14:38:56;;;;;;;16.17;13.17;;;;;;;;;;4979889;28;20304;-74
2022/11/16 14:41:22;;;;;;;21.83;13.37;;;;;;;;;;4916257;29;20235;-74
2022/11/16 14:44:34;;;;;;;15.33;13.63;;;;;;;;;;4959031;28;20917;-74
2022/11/16 14:47:26;;;;;;;18.23;12.50;;;;;;;;;;4968832;28;20825;-75
2022/11/16 14:49:54;;;;;;;14.67;12.97;;;;;;;;;;4954425;28;20229;-77
2022/11/16 14:52:39;;;;;;;15.13;12.77;;;;;;;;;;4960911;28;20225;-77
2022/11/16 14:55:16;;;;;;;14.27;12.73;;;;;;;;;;4954614;28;21161;-74
2022/11/16 14:57:44;;;;;;;16.37;13.53;;;;;;;;;;4944544;28;20766;-76
2022/11/16 15:00:16;;;;;;;15.80;12.90;;;;;;;;;;4967634;28;20237;-76
2022/11/16 15:02:53;;;;;;;16.40;13.90;;;;;;;;;;4966313;28;20229;-75
2022/11/16 15:05:21;;;;;;;16.43;13.60;;;;;;;;;;4965464;28;20291;-74
2022/11/16 15:07:49;;;;;;;18.77;13.43;;;;;;;;;;4936005;28;20575;-75
2022/11/16 15:10:16;;;;;;;16.33;13.57;;;;;;;;;;4962913;28;20597;-72
2022/11/16 15:12:43;;;;;;;17.00;13.70;;;;;;;;;;4955226;28;20228;-76
2022/11/16 15:15:15;;;;;;;16.23;12.93;;;;;;;;;;4972586;28;20238;-72
2022/11/16 15:17:45;;;;;;;26.63;21.63;;;;;;;;;;4972226;28;20261;-75
2022/11/16 15:20:14;;;;;;;17.10;13.57;;;;;;;;;;4964358;28;20217;-75
2022/11/16 15:22:44;;;;;;;19.37;13.13;;;;;;;;;;4970606;28;20225;-75
2022/11/16 15:25:50;;;;;;;15.30;13.00;;;;;;;;;;4948303;28;20225;-74
2022/11/16 15:28:21;;;;;;;13.77;11.77;;;;;;;;;;4899791;29;20303;-77
2022/11/16 15:30:54;;;;;;;14.17;11.97;;;;;;;;;;4903544;29;20234;-75
2022/11/16 15:33:35;;;;;;;15.13;11.77;;;;;;;;;;4922556;28;20217;-75
2022/11/16 15:36:01;;;;;;;14.23;11.77;;;;;;;;;;4976185;28;20299;-75
2022/11/16 15:38:32;;;;;;;13.97;11.03;;;;;;;;;;4948344;28;20735;-76